Time;durP1;ratioP1;P1;durP2;ratioP2;P2;SDS_P1;SDS_P2;PMS_P1;PMS_P2;Temp;Humidity;BMP_temperature;BMP_pressure;BME280_temperature;BME280_humidity;BME280_pressure;Samples;Min_cycle;Max_cycle;Signal;HPM_P1;HPM_P2
2022/04/13 00:02:00;;;;;;;0.10;0.10;;;;;;;;;;5048035;28;20240;-77
2022/04/13 00:04:26;;;;;;;0.10;0.10;;;;;;;;;;5044918;28;20594;-77
2022/04/13 00:06:52;;;;;;;0.10;0.10;;;;;;;;;;5047213;28;20242;-77
2022/04/13 00:09:19;;;;;;;0.10;0.10;;;;;;;;;;5045305;28;20211;-79
2022/04/13 00:11:46;;;;;;;0.10;0.10;;;;;;;;;;5046305;28;20242;-78
2022/04/13 00:14:13;;;;;;;0.10;0.10;;;;;;;;;;5045943;28;20255;-77
2022/04/13 00:16:39;;;;;;;0.10;0.10;;;;;;;;;;5045343;28;20241;-77
2022/04/13 00:19:06;;;;;;;0.10;0.10;;;;;;;;;;5047000;28;20197;-77
2022/04/13 00:21:32;;;;;;;0.10;0.10;;;;;;;;;;5044170;28;20288;-77
2022/04/13 00:23:58;;;;;;;0.10;0.10;;;;;;;;;;5047954;28;20204;-76
2022/04/13 00:26:25;;;;;;;0.10;0.10;;;;;;;;;;5043266;28;20240;-77
2022/04/13 00:28:52;;;;;;;0.60;0.60;;;;;;;;;;5048673;28;20253;-77
2022/04/13 00:31:19;;;;;;;0.10;0.10;;;;;;;;;;5042517;28;20288;-76
2022/04/13 00:33:45;;;;;;;0.10;0.10;;;;;;;;;;5049165;28;20294;-76
2022/04/13 00:36:11;;;;;;;0.10;0.10;;;;;;;;;;5041578;28;20246;-76
2022/04/13 00:38:38;;;;;;;0.20;0.20;;;;;;;;;;5050067;28;20254;-78
2022/04/13 00:41:04;;;;;;;0.10;0.10;;;;;;;;;;5040505;28;20252;-77
2022/04/13 00:43:30;;;;;;;0.10;0.10;;;;;;;;;;5051331;28;20249;-78
2022/04/13 00:45:58;;;;;;;0.43;0.43;;;;;;;;;;5039442;28;20308;-78
2022/04/13 00:48:28;;;;;;;0.10;0.10;;;;;;;;;;5051763;28;20202;-76
2022/04/13 00:50:55;;;;;;;0.10;0.10;;;;;;;;;;5039320;28;20298;-78
2022/04/13 00:53:22;;;;;;;0.10;0.10;;;;;;;;;;5052219;28;20418;-77
2022/04/13 00:55:48;;;;;;;0.10;0.10;;;;;;;;;;5038442;28;20256;-77
2022/04/13 00:58:15;;;;;;;0.10;0.10;;;;;;;;;;5053062;28;20490;-78
2022/04/13 01:00:48;;;;;;;0.10;0.10;;;;;;;;;;5036803;28;20247;-77
2022/04/13 01:03:16;;;;;;;0.10;0.10;;;;;;;;;;5052910;28;20266;-78
2022/04/13 01:05:43;;;;;;;0.10;0.10;;;;;;;;;;5037638;28;20439;-78
2022/04/13 01:08:09;;;;;;;1.43;1.43;;;;;;;;;;5053813;28;20206;-77
2022/04/13 01:10:38;;;;;;;0.10;0.10;;;;;;;;;;5036281;28;20240;-78
2022/04/13 01:13:04;;;;;;;0.10;0.10;;;;;;;;;;5053885;28;20390;-77
2022/04/13 01:15:30;;;;;;;0.10;0.10;;;;;;;;;;5035908;28;20245;-77
2022/04/13 01:17:56;;;;;;;0.10;0.10;;;;;;;;;;5055044;28;20247;-76
2022/04/13 01:20:25;;;;;;;0.10;0.10;;;;;;;;;;5034934;28;20249;-77
2022/04/13 01:22:53;;;;;;;0.10;0.10;;;;;;;;;;5055873;28;20196;-77
2022/04/13 01:25:19;;;;;;;0.10;0.10;;;;;;;;;;5034400;28;20443;-77
2022/04/13 01:27:45;;;;;;;0.10;0.10;;;;;;;;;;5056190;28;20508;-78
2022/04/13 01:30:12;;;;;;;0.10;0.10;;;;;;;;;;5033548;28;20246;-78
2022/04/13 01:32:39;;;;;;;0.10;0.10;;;;;;;;;;5056182;28;20222;-77
2022/04/13 01:35:06;;;;;;;0.10;0.10;;;;;;;;;;5042881;28;20408;-77
2022/04/13 01:37:32;;;;;;;0.13;0.13;;;;;;;;;;5030963;28;20247;-77
2022/04/13 01:40:00;;;;;;;0.10;0.10;;;;;;;;;;5042576;28;20208;-77
2022/04/13 01:42:26;;;;;;;0.10;0.10;;;;;;;;;;5047803;28;20417;-78
2022/04/13 01:44:53;;;;;;;0.10;0.10;;;;;;;;;;5042620;28;20248;-77
2022/04/13 01:47:19;;;;;;;0.10;0.10;;;;;;;;;;5047586;28;20236;-78
2022/04/13 01:49:46;;;;;;;0.10;0.10;;;;;;;;;;5042800;28;20252;-78
2022/04/13 01:52:12;;;;;;;0.27;0.27;;;;;;;;;;5047815;28;20244;-77
2022/04/13 01:54:39;;;;;;;0.10;0.10;;;;;;;;;;5042450;28;20233;-77
2022/04/13 01:57:06;;;;;;;0.40;0.40;;;;;;;;;;5047366;28;20241;-78
2022/04/13 01:59:33;;;;;;;0.10;0.10;;;;;;;;;;5042517;28;20397;-78
2022/04/13 02:02:04;;;;;;;0.10;0.10;;;;;;;;;;5046754;28;20239;-77
2022/04/13 02:04:31;;;;;;;0.10;0.10;;;;;;;;;;5042307;28;20209;-77
2022/04/13 02:06:58;;;;;;;0.10;0.10;;;;;;;;;;5046404;28;20281;-77
2022/04/13 02:09:24;;;;;;;0.10;0.10;;;;;;;;;;5046354;28;20421;-78
2022/04/13 02:11:50;;;;;;;0.10;0.10;;;;;;;;;;5049042;28;20249;-77
2022/04/13 02:14:18;;;;;;;0.10;0.10;;;;;;;;;;5047802;28;20267;-77
2022/04/13 02:16:44;;;;;;;0.10;0.10;;;;;;;;;;5048406;28;20240;-78
2022/04/13 02:19:12;;;;;;;0.10;0.10;;;;;;;;;;5048406;28;20409;-78
2022/04/13 02:21:38;;;;;;;0.20;0.20;;;;;;;;;;5047411;28;20308;-77
2022/04/13 02:24:05;;;;;;;0.10;0.10;;;;;;;;;;5048932;28;20237;-78
2022/04/13 02:26:32;;;;;;;0.10;0.10;;;;;;;;;;5046493;28;20494;-77
2022/04/13 02:28:58;;;;;;;0.10;0.10;;;;;;;;;;5049735;28;20256;-78
2022/04/13 02:31:26;;;;;;;0.10;0.10;;;;;;;;;;5045762;28;20248;-78
2022/04/13 02:33:54;;;;;;;0.10;0.10;;;;;;;;;;5050482;28;20277;-78
2022/04/13 02:36:20;;;;;;;0.10;0.10;;;;;;;;;;5044679;28;20286;-78
2022/04/13 02:38:46;;;;;;;0.10;0.10;;;;;;;;;;5051061;28;20279;-76
2022/04/13 02:41:12;;;;;;;0.10;0.10;;;;;;;;;;5043765;28;20241;-78
2022/04/13 02:43:39;;;;;;;0.10;0.10;;;;;;;;;;5052264;28;21918;-78
2022/04/13 02:46:05;;;;;;;0.10;0.10;;;;;;;;;;5042889;28;20244;-77
2022/04/13 02:48:33;;;;;;;0.10;0.10;;;;;;;;;;5053052;28;20205;-77
2022/04/13 02:50:59;;;;;;;0.10;0.10;;;;;;;;;;5041746;28;20413;-77
2022/04/13 02:53:26;;;;;;;0.30;0.30;;;;;;;;;;5053724;28;20208;-77
2022/04/13 02:55:53;;;;;;;1.33;1.23;;;;;;;;;;5041029;28;20241;-77
2022/04/13 02:58:19;;;;;;;0.20;0.20;;;;;;;;;;5054325;28;20209;-77
2022/04/13 03:00:47;;;;;;;0.10;0.10;;;;;;;;;;5039872;28;20243;-78
2022/04/13 03:03:13;;;;;;;0.20;0.20;;;;;;;;;;5054857;28;20202;-77
2022/04/13 03:05:41;;;;;;;0.13;0.13;;;;;;;;;;5039426;28;20244;-78
2022/04/13 03:08:07;;;;;;;0.10;0.10;;;;;;;;;;5055417;28;20201;-78
2022/04/13 03:10:33;;;;;;;0.20;0.20;;;;;;;;;;5038776;28;20241;-77
2022/04/13 03:13:00;;;;;;;0.50;0.50;;;;;;;;;;5056470;28;20267;-77
2022/04/13 03:15:26;;;;;;;0.30;0.30;;;;;;;;;;5037051;28;20532;-77
2022/04/13 03:17:53;;;;;;;0.10;0.10;;;;;;;;;;5057142;28;20206;-78
2022/04/13 03:20:19;;;;;;;0.10;0.10;;;;;;;;;;5036507;28;20391;-77
2022/04/13 03:22:50;;;;;;;0.10;0.10;;;;;;;;;;5057724;28;20204;-78
2022/04/13 03:25:16;;;;;;;0.20;0.20;;;;;;;;;;5036030;28;20477;-77
2022/04/13 03:27:43;;;;;;;0.10;0.10;;;;;;;;;;5058704;28;20235;-77
2022/04/13 03:30:13;;;;;;;0.10;0.10;;;;;;;;;;5035111;28;20434;-78
2022/04/13 03:32:39;;;;;;;0.17;0.17;;;;;;;;;;5058639;28;20193;-78
2022/04/13 03:35:07;;;;;;;0.40;0.40;;;;;;;;;;5034707;28;20228;-78
2022/04/13 03:37:33;;;;;;;1.67;1.67;;;;;;;;;;5058517;28;20268;-78
2022/04/13 03:40:01;;;;;;;0.20;0.20;;;;;;;;;;5044392;28;20209;-78
2022/04/13 03:42:27;;;;;;;0.10;0.10;;;;;;;;;;5049402;28;20236;-78
2022/04/13 03:44:53;;;;;;;0.10;0.10;;;;;;;;;;5044379;28;20200;-78
2022/04/13 03:47:19;;;;;;;0.10;0.10;;;;;;;;;;5049228;28;20245;-77
2022/04/13 03:49:46;;;;;;;0.10;0.10;;;;;;;;;;5044303;28;20248;-78
2022/04/13 03:52:12;;;;;;;0.10;0.10;;;;;;;;;;5049484;28;20240;-78
2022/04/13 03:54:38;;;;;;;0.20;0.20;;;;;;;;;;5043891;28;20228;-77
2022/04/13 03:57:07;;;;;;;0.10;0.10;;;;;;;;;;5048784;28;20543;-78
2022/04/13 03:59:34;;;;;;;0.10;0.10;;;;;;;;;;5043847;28;20502;-78
2022/04/13 04:02:00;;;;;;;0.10;0.10;;;;;;;;;;5048006;28;20244;-77
2022/04/13 04:04:26;;;;;;;0.10;0.10;;;;;;;;;;5044297;28;20206;-77
2022/04/13 04:06:52;;;;;;;0.10;0.10;;;;;;;;;;5047050;28;20235;-78
2022/04/13 04:09:19;;;;;;;0.50;0.50;;;;;;;;;;5045633;28;20217;-77
2022/04/13 04:11:45;;;;;;;0.10;0.10;;;;;;;;;;5046243;28;20456;-78
2022/04/13 04:14:13;;;;;;;0.10;0.10;;;;;;;;;;5046283;28;20206;-77
2022/04/13 04:16:39;;;;;;;0.17;0.17;;;;;;;;;;5045474;28;20438;-78
2022/04/13 04:19:06;;;;;;;0.10;0.10;;;;;;;;;;5046876;28;20235;-78
2022/04/13 04:21:34;;;;;;;0.10;0.10;;;;;;;;;;5044376;28;20247;-77
2022/04/13 04:24:01;;;;;;;0.10;0.10;;;;;;;;;;5047309;28;20502;-78
2022/04/13 04:26:27;;;;;;;6.53;6.23;;;;;;;;;;5043547;28;20246;-78
2022/04/13 04:28:53;;;;;;;0.10;0.10;;;;;;;;;;5048016;28;20250;-77
2022/04/13 04:31:49;;;;;;;0.10;0.10;;;;;;;;;;5034634;28;20259;-77
2022/04/13 04:34:07;;;;;;;0.10;0.10;;;;;;;;;;5046351;28;20255;-78
2022/04/13 04:36:34;;;;;;;0.10;0.10;;;;;;;;;;5044313;28;20239;-77
2022/04/13 04:39:01;;;;;;;0.10;0.10;;;;;;;;;;5047370;28;20205;-78
2022/04/13 04:41:27;;;;;;;0.10;0.10;;;;;;;;;;5043309;28;20248;-79
2022/04/13 04:43:53;;;;;;;0.20;0.20;;;;;;;;;;5048130;28;20204;-77
2022/04/13 04:46:20;;;;;;;0.40;0.40;;;;;;;;;;5042363;28;20247;-79
2022/04/13 04:48:47;;;;;;;0.10;0.10;;;;;;;;;;5049005;28;20197;-78
2022/04/13 04:51:14;;;;;;;0.10;0.10;;;;;;;;;;5041693;28;20240;-78
2022/04/13 04:53:41;;;;;;;0.10;0.10;;;;;;;;;;5049611;28;20513;-77
2022/04/13 04:56:07;;;;;;;0.10;0.10;;;;;;;;;;5040397;28;20254;-77
2022/04/13 04:58:34;;;;;;;0.20;0.20;;;;;;;;;;5050506;28;20392;-76
2022/04/13 05:01:00;;;;;;;0.10;0.10;;;;;;;;;;5039484;28;20240;-77
2022/04/13 05:03:26;;;;;;;0.10;0.10;;;;;;;;;;5050907;28;20205;-78
2022/04/13 05:05:54;;;;;;;0.10;0.10;;;;;;;;;;5038708;28;20243;-77
2022/04/13 05:08:20;;;;;;;0.10;0.10;;;;;;;;;;5051842;28;20418;-77
2022/04/13 05:10:51;;;;;;;0.20;0.20;;;;;;;;;;5037772;28;20243;-77
2022/04/13 05:13:17;;;;;;;0.10;0.10;;;;;;;;;;5041459;28;20492;-78
2022/04/13 05:15:43;;;;;;;0.10;0.10;;;;;;;;;;5037643;28;20244;-77
2022/04/13 05:18:09;;;;;;;0.10;0.10;;;;;;;;;;5053117;28;20275;-78
2022/04/13 05:20:38;;;;;;;0.10;0.10;;;;;;;;;;5036709;28;20239;-77
2022/04/13 05:23:07;;;;;;;0.10;0.10;;;;;;;;;;5053870;28;20188;-78
2022/04/13 05:25:34;;;;;;;0.20;0.20;;;;;;;;;;5036217;28;20260;-77
2022/04/13 05:28:01;;;;;;;0.37;0.37;;;;;;;;;;5054301;28;20211;-78
2022/04/13 05:30:28;;;;;;;0.10;0.10;;;;;;;;;;5035500;28;20252;-78
2022/04/13 05:32:57;;;;;;;0.13;0.13;;;;;;;;;;5055374;28;20220;-78
2022/04/13 05:35:24;;;;;;;0.20;0.20;;;;;;;;;;5034896;28;20299;-77
2022/04/13 05:37:51;;;;;;;0.10;0.10;;;;;;;;;;5055742;28;20411;-77
2022/04/13 05:40:18;;;;;;;0.30;0.30;;;;;;;;;;5034033;28;20210;-77
2022/04/13 05:42:45;;;;;;;0.60;0.60;;;;;;;;;;5057209;28;20195;-77
2022/04/13 05:45:11;;;;;;;1.60;1.60;;;;;;;;;;5036894;28;20200;-78
2022/04/13 05:47:39;;;;;;;0.10;0.10;;;;;;;;;;5061291;28;20317;-78
2022/04/13 05:50:06;;;;;;;1.47;1.13;;;;;;;;;;5045167;28;20255;-76
2022/04/13 05:52:32;;;;;;;0.27;0.27;;;;;;;;;;5061550;28;20216;-78
2022/04/13 05:54:58;;;;;;;0.10;0.10;;;;;;;;;;5046435;28;20232;-77
2022/04/13 05:57:26;;;;;;;0.87;0.87;;;;;;;;;;5051491;28;20248;-78
2022/04/13 05:59:53;;;;;;;0.10;0.10;;;;;;;;;;5046116;28;20224;-78
2022/04/13 06:02:19;;;;;;;0.10;0.10;;;;;;;;;;5051305;28;20240;-77
2022/04/13 06:04:46;;;;;;;0.33;0.33;;;;;;;;;;5045766;28;20205;-79
2022/04/13 06:07:13;;;;;;;0.10;0.10;;;;;;;;;;5051303;28;20246;-77
2022/04/13 06:09:39;;;;;;;0.67;0.67;;;;;;;;;;5046101;28;20267;-77
2022/04/13 06:12:06;;;;;;;0.10;0.10;;;;;;;;;;5051430;28;20431;-78
2022/04/13 06:14:34;;;;;;;0.10;0.10;;;;;;;;;;5045996;28;20206;-77
2022/04/13 06:17:00;;;;;;;0.10;0.10;;;;;;;;;;5050064;28;20243;-77
2022/04/13 06:19:27;;;;;;;0.10;0.10;;;;;;;;;;5046367;28;20197;-80
2022/04/13 06:21:53;;;;;;;0.10;0.10;;;;;;;;;;5049162;28;20346;-78
2022/04/13 06:24:20;;;;;;;0.10;0.10;;;;;;;;;;5047310;28;20221;-78
2022/04/13 06:26:46;;;;;;;0.10;0.10;;;;;;;;;;5048395;28;20239;-78
2022/04/13 06:29:12;;;;;;;0.10;0.10;;;;;;;;;;5048084;28;20252;-76
2022/04/13 06:31:40;;;;;;;0.13;0.13;;;;;;;;;;5047156;28;20245;-76
2022/04/13 06:34:07;;;;;;;0.20;0.20;;;;;;;;;;5048865;28;20208;-75
2022/04/13 06:36:33;;;;;;;1.63;1.53;;;;;;;;;;5046175;28;20240;-77
2022/04/13 06:39:00;;;;;;;0.20;0.20;;;;;;;;;;5049619;28;20210;-77
2022/04/13 06:41:33;;;;;;;0.10;0.10;;;;;;;;;;5045773;28;20516;-78
2022/04/13 06:43:59;;;;;;;0.43;0.43;;;;;;;;;;5049669;28;20206;-78
2022/04/13 06:46:25;;;;;;;0.10;0.10;;;;;;;;;;5045224;28;20564;-77
2022/04/13 06:48:53;;;;;;;2.43;2.23;;;;;;;;;;5049958;28;20206;-76
2022/04/13 06:51:19;;;;;;;0.10;0.10;;;;;;;;;;5044512;28;20248;-76
2022/04/13 06:53:45;;;;;;;0.10;0.10;;;;;;;;;;5050496;28;20203;-77
2022/04/13 06:56:12;;;;;;;0.10;0.10;;;;;;;;;;5043189;28;20246;-77
2022/04/13 06:58:38;;;;;;;0.10;0.10;;;;;;;;;;5052148;28;20253;-77
2022/04/13 07:01:04;;;;;;;1.53;1.40;;;;;;;;;;5042115;28;20292;-77
2022/04/13 07:03:30;;;;;;;0.10;0.10;;;;;;;;;;5053023;28;20205;-78
2022/04/13 07:05:58;;;;;;;0.10;0.10;;;;;;;;;;5041462;28;20242;-78
2022/04/13 07:08:24;;;;;;;0.10;0.10;;;;;;;;;;5053503;28;20258;-77
2022/04/13 07:10:51;;;;;;;0.93;0.93;;;;;;;;;;5040393;28;20285;-77
2022/04/13 07:13:17;;;;;;;0.10;0.10;;;;;;;;;;5054366;28;20219;-75
2022/04/13 07:15:43;;;;;;;0.10;0.10;;;;;;;;;;5039167;28;20248;-76
2022/04/13 07:18:10;;;;;;;0.10;0.10;;;;;;;;;;5055112;28;20378;-76
2022/04/13 07:20:36;;;;;;;0.30;0.30;;;;;;;;;;5038744;28;20240;-77
2022/04/13 07:23:04;;;;;;;0.10;0.10;;;;;;;;;;5056215;28;20209;-77
2022/04/13 07:25:30;;;;;;;0.10;0.10;;;;;;;;;;5037673;28;20303;-78
2022/04/13 07:27:56;;;;;;;0.20;0.20;;;;;;;;;;5056517;28;20387;-77
2022/04/13 07:30:23;;;;;;;0.10;0.10;;;;;;;;;;5036795;28;20213;-77
2022/04/13 07:32:52;;;;;;;5.70;5.40;;;;;;;;;;5057785;28;20207;-78
2022/04/13 07:35:18;;;;;;;0.10;0.10;;;;;;;;;;5035827;28;20205;-77
2022/04/13 07:37:44;;;;;;;0.10;0.10;;;;;;;;;;5057852;28;20368;-79
2022/04/13 07:40:13;;;;;;;0.10;0.10;;;;;;;;;;5034667;28;20210;-78
2022/04/13 07:42:39;;;;;;;0.10;0.10;;;;;;;;;;5058644;28;20258;-78
2022/04/13 07:45:07;;;;;;;2.40;2.30;;;;;;;;;;5037714;28;20445;-77
2022/04/13 07:47:33;;;;;;;0.10;0.10;;;;;;;;;;5058953;28;20254;-78
2022/04/13 07:50:00;;;;;;;0.10;0.10;;;;;;;;;;5044166;28;20206;-80
2022/04/13 07:52:26;;;;;;;0.10;0.10;;;;;;;;;;5049261;28;20287;-78
2022/04/13 07:55:01;;;;;;;0.10;0.10;;;;;;;;;;5044319;28;20249;-77
2022/04/13 07:57:29;;;;;;;0.10;0.10;;;;;;;;;;5049229;28;20242;-80
2022/04/13 07:59:56;;;;;;;0.10;0.10;;;;;;;;;;5043956;28;20284;-77
2022/04/13 08:02:22;;;;;;;0.10;0.10;;;;;;;;;;5049096;28;20296;-77
2022/04/13 08:04:49;;;;;;;0.10;0.10;;;;;;;;;;5043410;28;20213;-79
2022/04/13 08:07:15;;;;;;;0.10;0.10;;;;;;;;;;5048579;28;20241;-78
2022/04/13 08:09:44;;;;;;;0.10;0.10;;;;;;;;;;5044015;28;20308;-78
2022/04/13 08:12:11;;;;;;;0.10;0.10;;;;;;;;;;5049179;28;20265;-77
2022/04/13 08:14:39;;;;;;;0.10;0.10;;;;;;;;;;5043886;28;20349;-79
2022/04/13 08:17:06;;;;;;;0.10;0.10;;;;;;;;;;5048555;28;20274;-77
2022/04/13 08:19:33;;;;;;;0.10;0.10;;;;;;;;;;5043276;28;20198;-78
2022/04/13 08:22:00;;;;;;;0.30;0.30;;;;;;;;;;5047899;28;20270;-77
2022/04/13 08:24:26;;;;;;;0.10;0.10;;;;;;;;;;5044246;28;20206;-77
2022/04/13 08:26:52;;;;;;;0.00;0.00;;;;;;;;;;5047227;28;20237;-76
2022/04/13 08:29:24;;;;;;;0.10;0.10;;;;;;;;;;5045253;28;20233;-77
2022/04/13 08:31:53;;;;;;;0.10;0.10;;;;;;;;;;5046624;28;20241;-77
2022/04/13 08:34:20;;;;;;;0.60;0.60;;;;;;;;;;5045053;28;20206;-79
2022/04/13 08:36:46;;;;;;;0.10;0.10;;;;;;;;;;5045881;28;20376;-76
2022/04/13 08:39:14;;;;;;;0.10;0.10;;;;;;;;;;5045852;28;20386;-77
2022/04/13 08:41:46;;;;;;;0.10;0.10;;;;;;;;;;5044698;28;20255;-77
2022/04/13 08:44:14;;;;;;;0.10;0.10;;;;;;;;;;5045798;28;20266;-78
2022/04/13 08:46:41;;;;;;;0.10;0.10;;;;;;;;;;5045274;28;20237;-78
2022/04/13 08:49:11;;;;;;;0.10;0.10;;;;;;;;;;5046728;28;20212;-77
2022/04/13 08:51:43;;;;;;;3.20;2.67;;;;;;;;;;5044586;28;20243;-77
2022/04/13 08:54:12;;;;;;;0.40;0.40;;;;;;;;;;5046442;28;20205;-79
2022/04/13 08:56:47;;;;;;;0.00;0.00;;;;;;;;;;5044464;28;20236;-77
2022/04/13 08:59:18;;;;;;;0.20;0.20;;;;;;;;;;5045573;28;20200;-77
2022/04/13 09:01:48;;;;;;;0.10;0.10;;;;;;;;;;5045377;28;20239;-78
2022/04/13 09:04:17;;;;;;;0.40;0.40;;;;;;;;;;5045291;28;20205;-78
2022/04/13 09:06:44;;;;;;;0.10;0.10;;;;;;;;;;5045381;28;20612;-77
2022/04/13 09:09:15;;;;;;;0.00;0.00;;;;;;;;;;5045848;28;20205;-78
2022/04/13 09:11:44;;;;;;;0.10;0.10;;;;;;;;;;5045217;28;20439;-78
2022/04/13 09:14:13;;;;;;;0.05;0.05;;;;;;;;;;5045738;28;20223;-79
2022/04/13 09:16:43;;;;;;;0.10;0.10;;;;;;;;;;5044776;28;20246;-79
2022/04/13 09:19:12;;;;;;;0.08;0.08;;;;;;;;;;5049467;28;20211;-78
2022/04/13 09:21:40;;;;;;;0.00;0.00;;;;;;;;;;5048293;28;20240;-79
2022/04/13 09:24:09;;;;;;;0.00;0.00;;;;;;;;;;5050340;28;20278;-78
2022/04/13 09:26:42;;;;;;;0.10;0.10;;;;;;;;;;5047981;28;20284;-77
2022/04/13 09:29:08;;;;;;;0.20;0.20;;;;;;;;;;5050418;28;20194;-76
2022/04/13 09:31:36;;;;;;;0.00;0.00;;;;;;;;;;5047959;28;20262;-76
2022/04/13 09:34:03;;;;;;;0.10;0.10;;;;;;;;;;5050535;28;20429;-78
2022/04/13 09:36:30;;;;;;;0.10;0.10;;;;;;;;;;5045359;28;20404;-78
2022/04/13 09:39:00;;;;;;;0.10;0.10;;;;;;;;;;5051465;28;20208;-76
2022/04/13 09:41:33;;;;;;;0.00;0.00;;;;;;;;;;5032892;28;20242;-76
2022/04/13 09:44:01;;;;;;;0.00;0.00;;;;;;;;;;5046741;28;20203;-78
2022/04/13 09:46:30;;;;;;;0.10;0.10;;;;;;;;;;5034538;28;20306;-78
2022/04/13 09:49:08;;;;;;;0.47;0.47;;;;;;;;;;5046844;28;20442;-76
2022/04/13 09:51:37;;;;;;;0.00;0.00;;;;;;;;;;5047258;28;20258;-78
2022/04/13 09:54:09;;;;;;;2.75;2.65;;;;;;;;;;5050455;28;20520;-79
2022/04/13 09:56:36;;;;;;;0.10;0.10;;;;;;;;;;5047844;28;20236;-78
2022/04/13 09:59:04;;;;;;;0.00;0.00;;;;;;;;;;5050040;28;20211;-78
2022/04/13 10:01:32;;;;;;;0.00;0.00;;;;;;;;;;5046987;28;20290;-77
2022/04/13 10:03:58;;;;;;;0.03;0.03;;;;;;;;;;5050561;28;20392;-77
2022/04/13 10:06:29;;;;;;;0.10;0.10;;;;;;;;;;5046127;28;20236;-78
2022/04/13 10:08:59;;;;;;;0.00;0.00;;;;;;;;;;5050908;28;20262;-77
2022/04/13 10:11:26;;;;;;;0.03;0.03;;;;;;;;;;5045837;28;20307;-79
2022/04/13 10:13:53;;;;;;;0.65;0.55;;;;;;;;;;5051079;28;20205;-77
2022/04/13 10:16:19;;;;;;;0.00;0.00;;;;;;;;;;5044723;28;20413;-77
2022/04/13 10:18:52;;;;;;;0.00;0.00;;;;;;;;;;5051779;28;20243;-77
2022/04/13 10:21:32;;;;;;;0.00;0.00;;;;;;;;;;5044647;28;20243;-77
2022/04/13 10:23:59;;;;;;;0.00;0.00;;;;;;;;;;5049911;28;20201;-75
2022/04/13 10:26:27;;;;;;;1.20;1.20;;;;;;;;;;5045666;28;20247;-79
2022/04/13 10:28:54;;;;;;;0.10;0.10;;;;;;;;;;5049597;28;20205;-79
2022/04/13 10:31:21;;;;;;;0.00;0.00;;;;;;;;;;5045077;28;20281;-78
2022/04/13 10:33:48;;;;;;;0.30;0.30;;;;;;;;;;5051261;28;20205;-77
2022/04/13 10:36:15;;;;;;;0.00;0.00;;;;;;;;;;5044306;28;20240;-80
2022/04/13 10:38:42;;;;;;;0.00;0.00;;;;;;;;;;5052797;28;20391;-75
2022/04/13 10:41:12;;;;;;;0.00;0.00;;;;;;;;;;5043058;28;20251;-77
2022/04/13 10:43:40;;;;;;;0.00;0.00;;;;;;;;;;5052681;28;20278;-81
2022/04/13 10:46:07;;;;;;;0.00;0.00;;;;;;;;;;5043037;28;20239;-78
2022/04/13 10:48:40;;;;;;;0.10;0.10;;;;;;;;;;5052414;28;20247;-78
2022/04/13 10:51:10;;;;;;;0.20;0.20;;;;;;;;;;5042309;28;20289;-78
2022/04/13 10:53:39;;;;;;;0.08;0.08;;;;;;;;;;5052994;28;20232;-79
2022/04/13 10:56:06;;;;;;;0.00;0.00;;;;;;;;;;5042966;28;20247;-73
2022/04/13 10:58:47;;;;;;;0.00;0.00;;;;;;;;;;5052787;28;20327;-72
2022/04/13 11:01:15;;;;;;;0.10;0.10;;;;;;;;;;5041934;28;20497;-71
2022/04/13 11:03:42;;;;;;;0.00;0.00;;;;;;;;;;5051602;28;20504;-71
2022/04/13 11:06:09;;;;;;;0.00;0.00;;;;;;;;;;5042750;28;20431;-72
2022/04/13 11:08:44;;;;;;;0.57;0.57;;;;;;;;;;5051674;28;20201;-72
2022/04/13 11:11:15;;;;;;;0.00;0.00;;;;;;;;;;5043082;28;20300;-73
2022/04/13 11:13:41;;;;;;;0.35;0.35;;;;;;;;;;5051257;28;20220;-73
2022/04/13 11:16:15;;;;;;;0.85;0.85;;;;;;;;;;5042242;28;20243;-74
2022/04/13 11:18:42;;;;;;;0.00;0.00;;;;;;;;;;5050874;28;20188;-74
2022/04/13 11:21:09;;;;;;;0.00;0.00;;;;;;;;;;5042423;28;20262;-73
2022/04/13 11:23:46;;;;;;;0.00;0.00;;;;;;;;;;5051713;28;20205;-74
2022/04/13 11:26:13;;;;;;;0.00;0.00;;;;;;;;;;5043148;28;20281;-73
2022/04/13 11:28:39;;;;;;;0.00;0.00;;;;;;;;;;5051102;28;20340;-72
2022/04/13 11:31:06;;;;;;;0.00;0.00;;;;;;;;;;5041730;28;20236;-72
2022/04/13 11:33:41;;;;;;;0.00;0.00;;;;;;;;;;5051700;28;20205;-72
2022/04/13 11:36:07;;;;;;;0.10;0.10;;;;;;;;;;5041964;28;20250;-73
2022/04/13 11:38:36;;;;;;;0.20;0.20;;;;;;;;;;5052842;28;20293;-80
2022/04/13 11:41:07;;;;;;;7.78;6.32;;;;;;;;;;5044269;28;20462;-78
2022/04/13 11:43:33;;;;;;;0.00;0.00;;;;;;;;;;5054424;28;20354;-77
2022/04/13 11:46:00;;;;;;;0.00;0.00;;;;;;;;;;5043939;28;20307;-78
2022/04/13 11:48:32;;;;;;;0.00;0.00;;;;;;;;;;5056318;28;20210;-80
2022/04/13 11:51:13;;;;;;;1.45;1.08;;;;;;;;;;5043860;28;20249;-77
2022/04/13 11:53:52;;;;;;;0.10;0.10;;;;;;;;;;5050403;28;20253;-75
2022/04/13 11:56:30;;;;;;;0.00;0.00;;;;;;;;;;5043475;28;20248;-77
2022/04/13 11:58:56;;;;;;;0.00;0.00;;;;;;;;;;5048728;28;20248;-78
2022/04/13 12:01:25;;;;;;;0.00;0.00;;;;;;;;;;5043920;28;20249;-80
2022/04/13 12:03:52;;;;;;;0.03;0.03;;;;;;;;;;5055150;28;20207;-80
2022/04/13 12:06:21;;;;;;;0.10;0.10;;;;;;;;;;5049455;28;20300;-77
2022/04/13 12:08:52;;;;;;;0.08;0.08;;;;;;;;;;5054324;28;20200;-80
2022/04/13 12:11:19;;;;;;;0.10;0.10;;;;;;;;;;5049998;28;20250;-80
2022/04/13 12:13:47;;;;;;;0.10;0.10;;;;;;;;;;5055723;28;20208;-80
2022/04/13 12:16:16;;;;;;;0.00;0.00;;;;;;;;;;5046942;28;20246;-79
2022/04/13 12:18:43;;;;;;;0.00;0.00;;;;;;;;;;5054063;28;20249;-81
2022/04/13 12:21:10;;;;;;;0.10;0.10;;;;;;;;;;5044176;28;20242;-82
2022/04/13 12:23:38;;;;;;;0.10;0.10;;;;;;;;;;5058592;28;20211;-78
2022/04/13 12:26:06;;;;;;;0.00;0.00;;;;;;;;;;5047494;28;20268;-80
2022/04/13 12:28:33;;;;;;;0.00;0.00;;;;;;;;;;5058191;28;20202;-79
2022/04/13 12:31:02;;;;;;;0.00;0.00;;;;;;;;;;5042550;28;20241;-77
2022/04/13 12:33:29;;;;;;;0.00;0.00;;;;;;;;;;5055480;28;20206;-81
2022/04/13 12:35:56;;;;;;;0.00;0.00;;;;;;;;;;5043799;28;20243;-79
2022/04/13 12:38:24;;;;;;;0.00;0.00;;;;;;;;;;5056719;28;20228;-83
2022/04/13 12:40:50;;;;;;;0.00;0.00;;;;;;;;;;5044714;28;20305;-82
2022/04/13 12:43:28;;;;;;;0.20;0.20;;;;;;;;;;5060110;28;20199;-82
2022/04/13 12:45:54;;;;;;;6.68;6.28;;;;;;;;;;5044749;28;20332;-84
2022/04/13 12:48:24;;;;;;;0.00;0.00;;;;;;;;;;5057571;28;20229;-82
2022/04/13 12:51:02;;;;;;;0.00;0.00;;;;;;;;;;5046896;28;20247;-83
2022/04/13 12:53:29;;;;;;;0.00;0.00;;;;;;;;;;5054978;28;20272;-80
2022/04/13 12:55:56;;;;;;;0.10;0.10;;;;;;;;;;5040381;28;20243;-77
2022/04/13 12:58:23;;;;;;;0.05;0.05;;;;;;;;;;5053667;28;20226;-79
2022/04/13 13:00:51;;;;;;;0.00;0.00;;;;;;;;;;5040632;28;20275;-77
2022/04/13 13:03:20;;;;;;;0.00;0.00;;;;;;;;;;5053387;28;20236;-81
2022/04/13 13:05:46;;;;;;;0.00;0.00;;;;;;;;;;5040276;28;20322;-79
2022/04/13 13:08:13;;;;;;;0.10;0.10;;;;;;;;;;5053962;28;20199;-81
2022/04/13 13:10:43;;;;;;;0.00;0.00;;;;;;;;;;5039024;28;20254;-80
2022/04/13 13:13:09;;;;;;;0.00;0.00;;;;;;;;;;5053585;28;20244;-80
2022/04/13 13:15:37;;;;;;;0.00;0.00;;;;;;;;;;5037873;28;20252;-80
2022/04/13 13:18:07;;;;;;;0.00;0.00;;;;;;;;;;5054343;28;20225;-79
2022/04/13 13:20:33;;;;;;;0.00;0.00;;;;;;;;;;5036075;28;20248;-80
2022/04/13 13:23:00;;;;;;;0.10;0.10;;;;;;;;;;5043031;28;20209;-78
2022/04/13 13:25:26;;;;;;;0.10;0.10;;;;;;;;;;5035299;28;20372;-79
2022/04/13 13:27:55;;;;;;;1.13;1.13;;;;;;;;;;5056107;28;20249;-81
2022/04/13 13:30:21;;;;;;;0.00;0.00;;;;;;;;;;5034976;28;20311;-77
2022/04/13 13:32:48;;;;;;;0.00;0.00;;;;;;;;;;5057457;28;20206;-81
2022/04/13 13:35:17;;;;;;;0.08;0.08;;;;;;;;;;5034628;28;20496;-80
2022/04/13 13:37:44;;;;;;;0.03;0.03;;;;;;;;;;5058589;28;20374;-81
2022/04/13 13:40:28;;;;;;;0.10;0.10;;;;;;;;;;5035713;28;20210;-78
2022/04/13 13:42:54;;;;;;;13.52;12.73;;;;;;;;;;5055346;28;20357;-79
2022/04/13 13:45:21;;;;;;;0.00;0.00;;;;;;;;;;5034601;28;20211;-79
2022/04/13 13:47:47;;;;;;;0.00;0.00;;;;;;;;;;5057531;28;20230;-80
2022/04/13 13:50:14;;;;;;;0.00;0.00;;;;;;;;;;5034628;28;20267;-79
2022/04/13 13:52:41;;;;;;;0.00;0.00;;;;;;;;;;5058433;28;20195;-77
2022/04/13 13:55:08;;;;;;;0.10;0.10;;;;;;;;;;5035586;28;20405;-78
2022/04/13 13:57:34;;;;;;;0.10;0.10;;;;;;;;;;5061580;28;20239;-81
2022/04/13 14:00:03;;;;;;;0.10;0.10;;;;;;;;;;5043857;28;20251;-77
2022/04/13 14:02:30;;;;;;;0.00;0.00;;;;;;;;;;5034579;28;20205;-79
2022/04/13 14:04:56;;;;;;;0.10;0.10;;;;;;;;;;5047492;28;20207;-78
2022/04/13 14:07:23;;;;;;;0.00;0.00;;;;;;;;;;5052681;28;20435;-80
2022/04/13 14:09:52;;;;;;;0.00;0.00;;;;;;;;;;5047294;28;20204;-81
2022/04/13 14:12:18;;;;;;;0.00;0.00;;;;;;;;;;5052815;28;20260;-79
2022/04/13 14:14:45;;;;;;;0.00;0.00;;;;;;;;;;5047048;28;20210;-78
2022/04/13 14:17:11;;;;;;;0.00;0.00;;;;;;;;;;5053011;28;20393;-80
2022/04/13 14:19:38;;;;;;;0.00;0.00;;;;;;;;;;5046705;28;20227;-80
2022/04/13 14:22:05;;;;;;;0.10;0.10;;;;;;;;;;5054406;28;20276;-79
2022/04/13 14:24:31;;;;;;;0.20;0.20;;;;;;;;;;5046816;28;20393;-77
2022/04/13 14:26:59;;;;;;;0.00;0.00;;;;;;;;;;5050135;28;20237;-76
2022/04/13 14:29:25;;;;;;;10.88;10.32;;;;;;;;;;5047780;28;20212;-76
2022/04/13 14:31:52;;;;;;;0.10;0.10;;;;;;;;;;5032859;28;20244;-77
2022/04/13 14:34:22;;;;;;;5.43;5.05;;;;;;;;;;5044273;28;20201;-78
2022/04/13 14:39:20;;;;;;;0.00;0.00;;;;;;;;;;5142511;27;20557;-77
2022/04/13 14:41:56;;;;;;;0.08;0.08;;;;;;;;;;5115445;27;20362;-77
2022/04/13 14:44:26;;;;;;;4.72;4.47;;;;;;;;;;5083876;28;20200;-77
2022/04/13 14:47:05;;;;;;;0.00;0.00;;;;;;;;;;5098697;28;20244;-77
2022/04/13 14:49:38;;;;;;;0.10;0.10;;;;;;;;;;5080810;28;20200;-77